Latest Coastal Weather Observations for Yanakie

IDV60701

Issued at 8:11 pm EST Wednesday 27 May 2015 (issued every 10 minutes, with the page automatically refreshed every 10 minutes)

About coastal observations | Map of coastal stations | Coastal observations for VIC | Marine services | Other Formats
Station Details ID: 085301 Name: YANAKIE Lat: -38.81 Lon: 146.19 Height: 13.3 m
Data from the previous 72 hours. | See also: Recent months at Yanakie
Date/Time
EST
Temp

°C
Wind Pressure Rain
since 9am
mm
Weather Cloud Vis
km
Sea
Height
m
Swell
Dir
 
Speed
knots
Gust
knots
hPa Trend Height
m
Period
s
Dir
27/08:00pm 13.7 NNW 9 11 1018.2 - 0.4 - - - - - - -
27/07:30pm 13.2 NNW 6 8 1018.2 - 0.4 - - - - - - -
27/07:00pm 12.9 N 5 6 1018.0 - 0.4 - - - - - - -
27/06:30pm 13.3 NNW 4 7 1017.8 - 0.4 - - - - - - -
27/06:00pm 13.3 NNW 4 5 1017.7 - 0.4 - - - - - - -
27/05:30pm 13.4 NNW 5 6 1017.4 - 0.4 - - - - - - -
27/05:00pm 14.4 N 4 7 1017.2 - 0.4 - - - - - - -
27/04:30pm 15.9 NNW 5 7 1017.2 - 0.4 - - - - - - -
27/04:00pm 16.2 NNW 5 7 1017.4 - 0.4 - - - - - - -
27/03:30pm 16.6 NNW 8 11 1017.4 - 0.4 - - - - - - -
27/03:00pm 17.8 NNW 5 10 1017.3 - 0.4 - - - - - - -
27/02:30pm 17.0 NNW 6 9 1017.3 - 0.4 - - - - - - -
27/02:00pm 15.5 NNW 7 9 1017.6 - 0.4 - - - - - - -
27/01:30pm 16.7 NW 12 15 1018.0 - 0.0 - - - - - - -
27/01:00pm 18.2 NW 13 20 1018.1 - 0.0 - - - - - - -
27/12:30pm 17.5 NNW 10 14 1018.4 - 0.0 - - - - - - -
27/12:00pm 16.6 NE 4 6 1018.9 - 0.0 - - - - - - -
27/11:30am 15.9 NE 3 5 1019.4 - 0.0 - - - - - - -
27/11:00am 14.5 ENE 6 7 1019.9 - 0.0 - - - - - - -
27/10:00am 12.2 ENE 6 8 1020.1 - 0.0 - - - - - - -
27/09:30am 11.5 ENE 6 8 1020.3 - 0.0 - - - - - - -
27/09:00am 11.4 ENE 5 7 1020.5 - 0.0 - - - - - - -
27/08:30am 11.1 NE 3 4 1020.7 - 0.0 - - - - - - -
27/08:00am 10.8 ENE 4 5 1020.7 - 0.0 - - - - - - -
27/07:30am 10.7 NE 4 4 1020.8 - 0.0 - - - - - - -
27/07:00am 10.8 NE 4 5 1020.6 - 0.0 - - - - - - -
27/06:30am 10.7 NE 4 5 1020.6 - 0.0 - - - - - - -
27/06:00am 10.9 ENE 5 7 1020.6 - 0.0 - - - - - - -
27/05:30am 10.8 ENE 5 7 1020.6 - 0.0 - - - - - - -
27/05:00am 10.0 ENE 4 7 1020.7 - 0.0 - - - - - - -
27/04:30am 10.5 ENE 6 8 1021.0 - 0.0 - - - - - - -
27/04:00am 10.4 E 5 9 1021.1 - 0.0 - - - - - - -
27/03:30am 10.4 E 5 8 1021.4 - 0.0 - - - - - - -
27/03:00am 10.0 NE 4 6 1021.8 - 0.0 - - - - - - -
27/02:30am 10.2 ENE 4 7 1022.1 - 0.0 - - - - - - -
27/02:00am 10.4 ENE 4 5 1022.3 - 0.0 - - - - - - -
27/01:30am 10.2 ENE 4 5 1022.6 - 0.0 - - - - - - -
27/01:00am 10.3 ENE 4 4 1022.9 - 0.0 - - - - - - -
27/12:30am 10.1 ENE 4 5 1023.3 - 0.0 - - - - - - -
27/12:00am 9.8 ENE 3 4 1023.7 - 0.0 - - - - - - -
 
Date/Time
EST
Temp

°C
Wind Pressure Rain
since 9am
mm
Weather Cloud Vis
km
Sea
Height
m
Swell
Dir
 
Speed
knots
Gust
knots
hPa Trend Height
m
Period
s
Dir
26/11:30pm 10.0 ENE 4 5 1023.8 - 0.0 - - - - - - -
26/11:00pm 9.9 ENE 4 5 1024.0 - 0.0 - - - - - - -
26/10:30pm 10.1 ENE 4 5 1024.0 - 0.0 - - - - - - -
26/10:00pm 10.3 ENE 4 5 1024.2 - 0.0 - - - - - - -
26/09:30pm 10.1 ENE 4 5 1024.4 - 0.0 - - - - - - -
26/09:00pm 10.4 NE 3 5 1024.6 - 0.0 - - - - - - -
26/08:30pm 10.7 ENE 4 5 1024.7 - 0.0 - - - - - - -
26/08:00pm 11.1 ENE 3 4 1024.9 - 0.0 - - - - - - -
26/07:30pm 11.3 NE 3 5 1025.1 - 0.0 - - - - - - -
26/07:00pm 11.7 ENE 5 7 1025.3 - 0.0 - - - - - - -
26/06:30pm 11.2 ENE 5 6 1025.4 - 0.0 - - - - - - -
26/06:00pm 10.5 ENE 3 5 1025.6 - 0.0 - - - - - - -
26/05:30pm 11.0 E 3 4 1025.6 - 0.0 - - - - - - -
26/05:00pm 11.8 E 5 7 1025.4 - 0.0 - - - - - - -
26/04:30pm 13.1 E 2 2 1025.6 - 0.0 - - - - - - -
26/04:00pm 14.1 ENE 3 3 1025.8 - 0.0 - - - - - - -
26/03:30pm 15.5 S 1 2 1025.8 - 0.0 - - - - - - -
26/03:00pm 15.2 S 3 4 1025.8 - 0.0 - - - - - - -
26/02:30pm 15.5 SE 3 4 1026.0 - 0.0 - - - - - - -
26/02:00pm 15.8 SSW 2 4 1026.4 - 0.0 - - - - - - -
26/01:30pm 16.5 SW 4 5 1026.8 - 0.0 - - - - - - -
26/01:00pm 15.7 W 2 3 1027.0 - 0.0 - - - - - - -
26/12:30pm 16.3 WSW 3 5 1027.4 - 0.0 - - - - - - -
26/12:00pm 16.1 SW 4 6 1027.8 - 0.0 - - - - - - -
26/11:30am 15.3 W 4 5 1028.4 - 0.0 - - - - - - -
26/11:00am 14.2 W 3 4 1029.1 - 0.0 - - - - - - -
26/10:30am 14.4 NNW 1 3 1029.1 - 0.0 - - - - - - -
26/10:00am 13.3 NE 1 2 1029.2 - 0.0 - - - - - - -
26/09:30am 11.8 ENE 1 2 1029.2 - 0.0 - - - - - - -
26/09:00am 10.8 ESE 1 2 1029.2 - 0.0 - - - - - - -
26/08:30am 6.0 CALM 0 0 1029.5 - 0.0 - - - - - - -
26/08:00am 3.9 CALM 0 1 1029.6 - 0.0 - - - - - - -
26/07:30am 2.5 CALM 0 1 1029.2 - 0.0 - - - - - - -
26/07:00am 3.7 ENE 2 2 1029.1 - 0.0 - - - - - - -
26/06:30am 3.7 ENE 2 3 1029.0 - 0.0 - - - - - - -
26/06:00am 4.0 E 2 3 1028.9 - 0.0 - - - - - - -
26/05:30am 3.3 CALM 0 0 1028.7 - 0.0 - - - - - - -
26/05:00am 4.0 CALM 0 0 1028.7 - 0.0 - - - - - - -
26/04:30am 3.9 CALM 0 0 1028.8 - 0.0 - - - - - - -
26/04:00am 3.9 CALM 0 0 1028.8 - 0.0 - - - - - - -
26/03:30am 4.7 CALM 0 0 1028.9 - 0.0 - - - - - - -
26/03:00am 4.5 CALM 0 0 1029.1 - 0.0 - - - - - - -
26/02:30am 4.5 CALM 0 0 1029.3 - 0.0 - - - - - - -
26/02:00am 4.3 CALM 0 0 1029.3 - 0.0 - - - - - - -
26/01:30am 4.8 CALM 0 0 1029.1 - 0.0 - - - - - - -
26/01:00am 4.7 CALM 0 0 1029.2 - 0.0 - - - - - - -
26/12:30am 4.4 CALM 0 0 1029.4 - 0.0 - - - - - - -
26/12:00am 4.7 CALM 0 0 1029.6 - 0.0 - - - - - - -
 
Date/Time
EST
Temp

°C
Wind Pressure Rain
since 9am
mm
Weather Cloud Vis
km
Sea
Height
m
Swell
Dir
 
Speed
knots
Gust
knots
hPa Trend Height
m
Period
s
Dir
25/11:30pm 5.0 N 2 3 1029.7 - 0.0 - - - - - - -
25/11:00pm 5.1 N 2 2 1029.8 - 0.0 - - - - - - -
25/10:30pm 4.9 N 2 3 1029.9 - 0.0 - - - - - - -
25/10:00pm 5.3 N 2 3 1030.2 - 0.0 - - - - - - -
25/09:30pm 5.3 N 2 2 1030.2 - 0.0 - - - - - - -
25/09:00pm 5.9 N 1 2 1030.1 - 0.0 - - - - - - -
25/08:30pm 6.8 N 2 3 1030.0 - 0.0 - - - - - - -
25/08:00pm 6.9 N 2 3 1030.0 - 0.0 - - - - - - -
25/07:30pm 7.0 N 1 2 1029.9 - 0.0 - - - - - - -
25/07:00pm 7.5 CALM 0 0 1029.7 - 0.0 - - - - - - -
25/06:30pm 7.8 CALM 0 0 1029.6 - 0.0 - - - - - - -
25/06:00pm 9.0 WSW 1 2 1029.3 - 0.0 - - - - - - -
25/05:30pm 10.0 WSW 2 2 1029.2 - 0.0 - - - - - - -
25/05:00pm 11.6 WSW 4 4 1029.0 - 0.0 - - - - - - -
25/04:30pm 13.4 W 5 6 1028.8 - 0.0 - - - - - - -
25/04:00pm 14.7 W 5 7 1028.7 - 0.0 - - - - - - -
25/03:30pm 15.3 W 7 9 1028.8 - 0.0 - - - - - - -
25/03:00pm 15.6 W 9 10 1028.8 - 0.0 - - - - - - -
25/02:30pm 15.8 W 8 11 1028.9 - 0.0 - - - - - - -
25/02:00pm 16.1 W 9 12 1029.0 - 0.0 - - - - - - -
25/01:30pm 16.0 W 8 10 1029.1 - 0.0 - - - - - - -
25/01:00pm 16.4 W 7 12 1029.4 - 0.0 - - - - - - -
25/12:30pm 15.7 WNW 7 11 1029.8 - 0.0 - - - - - - -
25/12:00pm 14.3 WNW 8 12 1030.2 - 0.0 - - - - - - -
25/11:30am 15.1 WNW 8 12 1030.6 - 0.0 - - - - - - -
25/11:00am 13.5 WNW 6 9 1031.0 - 0.0 - - - - - - -
25/10:30am 11.9 NW 5 7 1031.0 - 0.0 - - - - - - -
25/10:00am 11.4 NW 1 3 1031.0 - 0.0 - - - - - - -
25/09:30am 10.9 NW 4 5 1031.1 - 0.0 - - - - - - -
25/09:00am 9.7 NW 5 6 1031.2 - 0.0 - - - - - - -
25/08:30am 9.7 NW 4 7 1031.0 - 0.0 - - - - - - -
25/08:00am 7.6 WNW 3 5 1031.1 - 0.0 - - - - - - -
25/07:30am 6.6 CALM 0 0 1030.9 - 0.0 - - - - - - -
25/07:00am 6.9 ENE 2 3 1030.3 - 0.0 - - - - - - -
25/06:30am 7.3 ENE 3 3 1030.0 - 0.0 - - - - - - -
25/06:00am 6.9 N 1 1 1030.2 - 0.0 - - - - - - -
25/05:30am 7.0 NNE 3 3 1030.2 - 0.0 - - - - - - -
25/05:00am 6.4 ENE 2 4 1030.0 - 0.0 - - - - - - -
25/04:30am 7.0 WNW 5 8 1029.8 - 0.0 - - - - - - -
25/04:00am 5.0 CALM 0 0 1029.8 - 0.0 - - - - - - -
25/03:30am 5.3 CALM 0 0 1029.9 - 0.0 - - - - - - -
25/03:00am 5.1 CALM 0 0 1030.1 - 0.0 - - - - - - -
25/02:30am 4.6 CALM 0 0 1030.4 - 0.0 - - - - - - -
25/02:00am 5.7 NNW 3 4 1030.5 - 0.0 - - - - - - -
25/01:30am 5.5 CALM 0 0 1030.5 - 0.0 - - - - - - -
25/01:00am 5.6 CALM 0 0 1030.6 - 0.0 - - - - - - -
25/12:30am 5.5 CALM 0 0 1030.7 - 0.0 - - - - - - -
25/12:00am 5.0 CALM 0 0 1030.8 - 0.0 - - - - - - -
 
Date/Time
EST
Temp

°C
Wind Pressure Rain
since 9am
mm
Weather Cloud Vis
km
Sea
Height
m
Swell
Dir
 
Speed
knots
Gust
knots
hPa Trend Height
m
Period
s
Dir
24/11:30pm 5.4 CALM 0 0 1030.6 - 0.0 - - - - - - -
24/11:00pm 5.0 CALM 0 0 1030.6 - 0.0 - - - - - - -
24/10:30pm 5.0 CALM 0 0 1030.8 - 0.0 - - - - - - -
24/10:00pm 5.3 CALM 0 0 1030.8 - 0.0 - - - - - - -
24/09:30pm 4.9 CALM 0 0 1031.0 - 0.0 - - - - - - -
24/09:00pm 5.2 CALM 0 0 1030.9 - 0.0 - - - - - - -
24/08:30pm 4.6 CALM 0 0 1030.8 - 0.0 - - - - - - -

Other Formats:

Comma delimited format used in spreadsheet applications
http://www.bom.gov.au/fwo/IDV60701/IDV60701.94911.axf

JavaScript Object Notation format (JSON) in row-major order
http://www.bom.gov.au/fwo/IDV60701/IDV60701.94911.json